Terminal Aerodrome Forecast
Issued by NWS Caribou, ME

Home | Current Version | Previous Version | Text Only | Print | Product List | Glossary On
Versions: 1 2 3 4 5 6 7 8 9 10 11 12 13 14
259
FTUS41 KCAR 201727
TAFBGR
TAF
KBGR 201727Z 2018/2118 35012G22KT P6SM SCT060
     FM202200 35008KT P6SM SCT200
     FM210400 VRB03KT P6SM SCT200=

USA.gov is the U.S. government's official web portal to all federal, state and local government web resources and services.